Time;durP1;ratioP1;P1;durP2;ratioP2;P2;SDS_P1;SDS_P2;PMS_P1;PMS_P2;Temp;Humidity;BMP_temperature;BMP_pressure;BME280_temperature;BME280_humidity;BME280_pressure;Samples;Min_cycle;Max_cycle;Signal;HPM_P1;HPM_P2
2021/06/18 12:44:00;;;;;;;11.60;5.43;;;;;;;28.49;50.74;101186.31;5137231;27;20523;-76
2021/06/18 12:46:26;;;;;;;6.87;5.60;;;;;;;28.51;50.32;101185.78;5086020;28;20198;-72
2021/06/18 12:48:52;;;;;;;7.73;5.20;;;;;;;28.58;50.20;101191.63;5102913;28;20677;-72
2021/06/18 12:51:20;;;;;;;7.53;5.40;;;;;;;28.55;50.55;101184.16;5103829;28;20175;-72
2021/06/18 12:53:49;;;;;;;6.17;4.90;;;;;;;28.64;50.30;101189.44;5102995;28;20167;-77
2021/06/18 12:56:19;;;;;;;7.67;5.13;;;;;;;28.64;50.30;101189.44;5104248;28;20216;-72
2021/06/18 12:58:48;;;;;;;9.03;5.23;;;;;;;28.61;50.34;101178.34;5103877;28;20175;-72
2021/06/18 13:01:20;;;;;;;5.80;4.63;;;;;;;28.57;50.25;101180.75;5102874;28;20159;-73
2021/06/18 13:03:49;;;;;;;8.63;4.60;;;;;;;28.58;50.93;101188.78;5087142;28;20647;-73
2021/06/18 13:06:15;;;;;;;5.53;4.47;;;;;;;28.64;50.30;101183.75;5104176;28;20168;-72
2021/06/18 13:08:58;;;;;;;7.90;4.80;;;;;;;28.65;51.04;101184.50;5102781;28;20179;-72
2021/06/18 13:11:35;;;;;;;7.80;4.83;;;;;;;28.71;50.44;101183.09;5086424;28;20167;-72
2021/06/18 13:14:10;;;;;;;7.60;4.40;;;;;;;28.68;51.73;101186.25;5103603;28;20233;-74
2021/06/18 13:16:36;;;;;;;5.00;4.40;;;;;;;28.63;51.75;101173.66;5103410;28;20179;-73
2021/06/18 13:19:02;;;;;;;8.67;4.53;;;;;;;28.69;51.92;101176.38;5085421;28;20226;-73
2021/06/18 13:22:07;;;;;;;4.50;4.10;;;;;;;28.66;50.36;101171.78;5085126;28;20205;-73
2021/06/18 13:24:35;;;;;;;4.73;3.67;;;;;;;28.61;50.04;101164.84;5081196;28;20261;-73
2021/06/18 13:27:10;;;;;;;4.17;3.60;;;;;;;28.57;50.07;101161.56;5064427;28;20226;-73
2021/06/18 13:29:47;;;;;;;7.37;3.80;;;;;;;28.65;50.47;101158.81;5064825;28;20164;-72
2021/06/18 13:32:12;;;;;;;5.97;3.80;;;;;;;28.68;50.53;101152.03;5064244;28;20180;-73
2021/06/18 13:36:36;;;;;;;6.43;3.90;;;;;;;28.69;50.36;101142.16;5140582;27;20533;-73
2021/06/18 13:39:29;;;;;;;7.07;4.30;;;;;;;28.76;50.57;101155.78;5106390;28;20173;-73
2021/06/18 13:41:55;;;;;;;6.50;4.60;;;;;;;28.77;50.61;101145.91;5092045;28;20175;-74
2021/06/18 13:44:20;;;;;;;6.27;4.37;;;;;;;28.76;50.88;101138.69;5124477;28;20166;-72
2021/06/18 13:46:46;;;;;;;7.13;4.13;;;;;;;28.70;50.31;101140.84;5124411;28;20617;-72
2021/06/18 13:49:12;;;;;;;12.07;4.63;;;;;;;28.68;51.15;101135.72;5122750;28;20175;-73
2021/06/18 13:51:42;;;;;;;15.43;4.77;;;;;;;28.70;51.14;101138.78;5105744;28;20243;-71
2021/06/18 13:54:08;;;;;;;19.37;5.10;;;;;;;28.61;51.80;101109.91;5106186;28;20163;-71
2021/06/18 13:56:33;;;;;;;13.40;4.80;;;;;;;28.70;51.21;101135.91;5088573;28;20185;-71
2021/06/18 13:58:59;;;;;;;13.63;5.17;;;;;;;28.72;51.64;101132.53;5122392;28;20166;-72
2021/06/18 14:01:25;;;;;;;9.00;4.70;;;;;;;29.55;49.81;101134.53;5105485;28;20174;-67
2021/06/18 14:07:28;;;;;;;7.47;3.70;;;;;;;31.42;46.10;101132.63;5139059;27;20979;-76
2021/06/18 14:09:54;;;;;;;5.47;3.30;;;;;;;31.55;45.36;101129.59;5121748;28;20426;-74
2021/06/18 14:12:19;;;;;;;4.27;3.60;;;;;;;31.44;45.19;101121.34;5106236;28;20171;-75
2021/06/18 14:14:47;;;;;;;6.38;3.28;;;;;;;31.45;45.75;101120.00;5122835;28;20174;-74
2021/06/18 14:17:16;;;;;;;11.05;3.78;;;;;;;31.46;45.78;101113.72;5106171;28;20159;-76
2021/06/18 14:19:42;;;;;;;5.78;3.30;;;;;;;31.47;45.70;101111.63;5123070;28;20176;-75
2021/06/18 14:22:08;;;;;;;6.97;3.10;;;;;;;31.56;44.79;101113.94;5105660;28;20704;-73
2021/06/18 14:24:33;;;;;;;5.30;2.72;;;;;;;31.68;44.10;101115.16;5124117;28;20170;-73
2021/06/18 14:26:59;;;;;;;4.38;3.28;;;;;;;31.78;43.72;101105.47;5105927;28;20257;-74
2021/06/18 14:29:25;;;;;;;4.40;3.17;;;;;;;31.88;44.12;101109.31;5105850;28;20178;-74
2021/06/18 14:31:52;;;;;;;5.82;3.17;;;;;;;32.04;44.15;101101.50;5105757;28;20171;-74
2021/06/18 14:34:18;;;;;;;5.30;2.78;;;;;;;32.21;43.10;101104.59;5106333;28;20264;-73
2021/06/18 14:36:44;;;;;;;6.53;3.10;;;;;;;32.29;43.39;101100.41;5122640;28;20553;-75
2021/06/18 14:40:03;;;;;;;6.80;2.95;;;;;;;32.29;43.36;101097.53;5140524;27;20518;-74
2021/06/18 14:42:29;;;;;;;4.68;3.05;;;;;;;32.34;43.06;101092.97;5105923;28;20733;-74
2021/06/18 14:44:54;;;;;;;6.80;3.08;;;;;;;32.41;43.11;101101.56;5124008;28;20151;-74
2021/06/18 14:47:20;;;;;;;5.25;2.75;;;;;;;32.71;42.38;101090.06;5122767;28;20178;-74
2021/06/18 14:49:45;;;;;;;5.45;2.58;;;;;;;33.78;39.95;101089.16;5122718;28;20162;-74
2021/06/18 14:52:11;;;;;;;3.40;2.60;;;;;;;34.96;37.47;101083.03;5105924;28;20204;-74
2021/06/18 14:54:39;;;;;;;4.22;2.17;;;;;;;35.93;36.00;101086.06;5122661;28;20167;-74
2021/06/18 14:57:05;;;;;;;3.40;2.17;;;;;;;36.37;35.26;101089.63;5105908;28;20195;-74
2021/06/18 14:59:33;;;;;;;3.03;2.25;;;;;;;36.51;35.47;101088.59;5123645;28;20248;-74
2021/06/18 15:01:58;;;;;;;3.90;2.30;;;;;;;36.61;34.73;101065.53;5123881;28;20214;-76
2021/06/18 15:04:24;;;;;;;3.92;2.17;;;;;;;36.80;34.70;101082.91;5105807;28;20170;-77
2021/06/18 15:06:50;;;;;;;4.05;2.30;;;;;;;37.22;34.01;101072.44;5122781;28;20630;-74
2021/06/18 15:09:16;;;;;;;5.03;2.20;;;;;;;37.90;32.84;101073.88;5123931;28;20163;-74
2021/06/18 15:11:41;;;;;;;4.68;1.98;;;;;;;38.73;31.85;101073.34;5105580;28;20170;-77
2021/06/18 15:14:07;;;;;;;4.97;2.42;;;;;;;39.51;30.60;101072.13;5105520;28;20546;-74
2021/06/18 15:16:33;;;;;;;4.72;2.08;;;;;;;40.05;29.99;101064.03;5105471;28;20246;-74
2021/06/18 15:18:59;;;;;;;3.80;2.03;;;;;;;40.13;30.18;101070.34;5122114;28;20707;-72
2021/06/18 15:21:24;;;;;;;3.88;2.08;;;;;;;40.07;30.53;101067.06;5088452;28;20170;-74
2021/06/18 15:23:51;;;;;;;6.63;2.13;;;;;;;40.21;30.28;101056.34;5105282;28;20183;-73
2021/06/18 15:26:17;;;;;;;3.35;1.90;;;;;;;40.47;29.20;101052.16;5088821;28;20167;-74
2021/06/18 15:28:44;;;;;;;4.78;2.13;;;;;;;40.76;29.43;101049.59;5122360;28;20159;-74
2021/06/18 15:31:10;;;;;;;4.63;1.98;;;;;;;40.45;29.11;101042.56;5122471;28;20178;-74
2021/06/18 15:33:35;;;;;;;3.08;1.90;;;;;;;39.89;28.86;101042.69;5122467;28;20170;-74
2021/06/18 15:36:02;;;;;;;4.82;1.98;;;;;;;39.39;29.01;101030.72;5122319;28;20171;-77
2021/06/18 15:39:28;;;;;;;2.55;1.70;;;;;;;38.44;29.93;101032.22;5140559;27;20522;-76
2021/06/18 15:41:53;;;;;;;2.92;1.73;;;;;;;37.75;30.02;101017.13;5105907;28;20242;-74
2021/06/18 15:44:19;;;;;;;4.57;1.90;;;;;;;37.02;31.48;101023.94;5122756;28;20162;-74
2021/06/18 15:46:46;;;;;;;3.72;1.80;;;;;;;36.39;32.25;101012.59;5106063;28;20182;-76
2021/06/18 15:49:13;;;;;;;3.50;2.00;;;;;;;35.75;33.37;101016.16;5122844;28;20163;-72
2021/06/18 15:51:41;;;;;;;2.17;1.70;;;;;;;35.15;34.75;101007.53;5106437;28;20171;-75
2021/06/18 15:55:39;;;;;;;6.47;2.47;;;;;;;34.29;36.51;101012.50;5140570;27;20533;-72
2021/06/18 15:58:05;;;;;;;4.72;2.03;;;;;;;33.92;37.31;101004.94;5123007;28;20212;-73
2021/06/18 16:00:31;;;;;;;4.18;2.53;;;;;;;33.63;38.79;101003.03;5105997;28;20170;-75
2021/06/18 16:02:56;;;;;;;7.43;2.72;;;;;;;33.37;39.37;101007.19;5123357;28;20171;-74
2021/06/18 16:05:22;;;;;;;5.13;2.25;;;;;;;33.04;40.44;100997.00;5122987;28;20166;-73
2021/06/18 16:07:47;;;;;;;6.65;2.60;;;;;;;32.80;41.05;101006.25;5122823;28;20208;-74
2021/06/18 16:10:13;;;;;;;6.50;2.63;;;;;;;32.54;41.69;101009.56;5106028;28;20648;-73
2021/06/18 16:12:39;;;;;;;3.90;2.63;;;;;;;32.30;42.28;101007.28;5123346;28;20176;-75
2021/06/18 16:15:08;;;;;;;3.70;2.40;;;;;;;32.12;42.86;100996.97;5105751;28;20210;-74
2021/06/18 16:17:33;;;;;;;4.45;2.40;;;;;;;31.95;43.74;100998.88;5088931;28;20212;-74
2021/06/18 16:19:59;;;;;;;5.75;2.95;;;;;;;31.73;43.96;100999.59;5123816;28;20178;-72
2021/06/18 16:22:24;;;;;;;5.78;2.60;;;;;;;31.57;44.68;101000.91;5106108;28;20179;-75
2021/06/18 16:24:50;;;;;;;4.85;2.50;;;;;;;31.43;45.07;100996.66;5105770;28;20163;-73
2021/06/18 16:27:15;;;;;;;6.25;2.58;;;;;;;31.39;44.68;100993.41;5122199;28;20175;-73
2021/06/18 16:29:44;;;;;;;5.10;2.65;;;;;;;31.36;45.18;101006.75;5088736;28;20248;-75
2021/06/18 16:32:11;;;;;;;3.15;2.10;;;;;;;31.27;45.41;101001.56;5105767;28;20204;-74
2021/06/18 16:34:36;;;;;;;5.25;2.70;;;;;;;31.17;45.47;100994.81;5105347;28;20202;-74
2021/06/18 16:37:02;;;;;;;5.05;2.50;;;;;;;31.05;45.62;101007.97;5122415;28;20189;-74
2021/06/18 16:39:28;;;;;;;6.13;3.03;;;;;;;30.87;45.88;100996.81;5122329;28;20641;-77
2021/06/18 16:41:53;;;;;;;3.15;2.28;;;;;;;30.69;46.95;100998.63;5122158;28;20169;-74
2021/06/18 16:44:19;;;;;;;6.40;2.60;;;;;;;30.53;47.20;101002.69;5122062;28;20174;-74
2021/06/18 16:46:44;;;;;;;3.90;2.57;;;;;;;30.36;47.25;100996.66;5088196;28;20179;-76
2021/06/18 16:49:10;;;;;;;3.50;2.35;;;;;;;30.18;46.76;100999.75;5122267;28;20185;-76
2021/06/18 16:51:35;;;;;;;6.38;2.95;;;;;;;29.97;47.80;101007.56;5122036;28;20183;-74
2021/06/18 16:54:01;;;;;;;5.93;3.30;;;;;;;29.81;48.40;101006.69;5088057;28;20234;-73
2021/06/18 16:56:27;;;;;;;4.20;2.83;;;;;;;29.72;48.75;101012.09;5088187;28;20174;-74
2021/06/18 16:58:52;;;;;;;5.93;3.10;;;;;;;29.62;48.98;101011.81;5123243;28;20171;-73
2021/06/18 17:01:19;;;;;;;3.73;2.70;;;;;;;29.57;49.00;101003.34;5088165;28;20244;-72
2021/06/18 17:03:45;;;;;;;6.20;3.13;;;;;;;29.51;49.48;101002.69;5104827;28;20179;-73
2021/06/18 17:06:10;;;;;;;6.73;3.20;;;;;;;29.41;49.95;101005.28;5113420;28;20189;-73
2021/06/18 17:08:37;;;;;;;4.07;3.03;;;;;;;29.38;50.04;101006.38;5091273;28;20736;-72
2021/06/18 17:11:04;;;;;;;4.83;3.10;;;;;;;29.33;49.79;101009.38;5091381;28;20171;-73
2021/06/18 17:13:37;;;;;;;3.50;3.07;;;;;;;29.25;50.27;101006.44;5107936;28;20236;-73
2021/06/18 17:16:03;;;;;;;4.13;2.90;;;;;;;29.20;50.57;101009.38;5107828;28;20182;-72
2021/06/18 17:18:29;;;;;;;4.43;3.00;;;;;;;29.17;50.84;101007.66;5091086;28;20175;-73
2021/06/18 17:20:55;;;;;;;4.53;3.13;;;;;;;29.15;51.00;101016.00;5074225;28;20183;-73
2021/06/18 17:23:20;;;;;;;6.83;3.10;;;;;;;29.09;50.99;101016.13;5091143;28;20171;-72
2021/06/18 17:25:46;;;;;;;4.43;3.40;;;;;;;29.02;51.20;101013.94;5090917;28;20178;-75
2021/06/18 17:28:11;;;;;;;3.83;3.30;;;;;;;28.98;51.41;101033.50;5107782;28;20179;-73
2021/06/18 17:30:38;;;;;;;4.63;3.30;;;;;;;28.93;51.74;101034.34;5091246;28;20242;-74
2021/06/18 17:33:04;;;;;;;5.90;3.30;;;;;;;28.88;52.03;101031.59;5107556;28;20182;-73
2021/06/18 17:37:35;;;;;;;3.50;3.17;;;;;;;28.68;52.67;101018.78;5140489;27;20556;-74
2021/06/18 17:40:02;;;;;;;4.43;3.53;;;;;;;28.60;52.60;101022.81;5123572;28;20167;-76
2021/06/18 17:42:28;;;;;;;5.73;3.67;;;;;;;28.56;52.61;101034.56;5106178;28;20173;-73
2021/06/18 17:44:53;;;;;;;4.63;3.30;;;;;;;28.49;52.85;101025.88;5123128;28;20171;-75
2021/06/18 17:47:19;;;;;;;3.93;3.53;;;;;;;28.41;53.77;101025.03;5124548;28;20566;-76
2021/06/18 17:49:44;;;;;;;4.03;3.63;;;;;;;28.33;54.14;101027.72;5106346;28;20176;-76
2021/06/18 17:52:10;;;;;;;5.43;3.60;;;;;;;28.26;53.27;101031.19;5123042;28;20174;-75
2021/06/18 17:54:35;;;;;;;4.40;3.80;;;;;;;28.21;52.43;101043.47;5122892;28;20171;-74
2021/06/18 17:57:01;;;;;;;4.93;3.43;;;;;;;28.23;52.75;101062.88;5089099;28;20198;-77
2021/06/18 17:59:27;;;;;;;5.17;3.13;;;;;;;28.20;52.96;101075.38;5122768;28;20197;-74
2021/06/18 18:01:52;;;;;;;5.30;3.60;;;;;;;28.14;54.04;101083.25;5122856;28;20163;-74
2021/06/18 18:04:18;;;;;;;4.00;3.30;;;;;;;28.08;54.88;101108.97;5088650;28;20190;-74
2021/06/18 18:06:43;;;;;;;6.00;3.60;;;;;;;27.98;54.86;101119.25;5122531;28;20576;-73
2021/06/18 18:09:09;;;;;;;6.97;4.07;;;;;;;27.90;54.54;101117.56;5122607;28;20170;-74
2021/06/18 18:11:35;;;;;;;6.40;3.90;;;;;;;27.83;53.38;101121.81;5105721;28;20182;-74
2021/06/18 18:14:05;;;;;;;6.80;4.47;;;;;;;27.77;53.41;101126.78;5122441;28;20163;-74
2021/06/18 18:16:31;;;;;;;6.43;4.17;;;;;;;27.75;53.49;101132.22;5105846;28;20236;-77
2021/06/18 18:18:57;;;;;;;7.27;3.90;;;;;;;27.72;53.37;101126.84;5122516;28;20178;-74
2021/06/18 18:21:22;;;;;;;6.23;4.37;;;;;;;27.64;53.64;101117.41;5088363;28;20170;-74
2021/06/18 18:23:48;;;;;;;6.10;4.77;;;;;;;27.51;54.17;101125.84;5122726;28;20159;-74
2021/06/18 18:26:16;;;;;;;9.03;5.07;;;;;;;27.45;54.36;101122.31;5122208;28;20606;-74
2021/06/18 18:28:42;;;;;;;7.23;5.10;;;;;;;27.41;54.41;101114.09;5122751;28;20200;-76
2021/06/18 18:31:08;;;;;;;8.67;4.50;;;;;;;27.37;53.61;101116.47;5105218;28;20167;-76
2021/06/18 18:33:33;;;;;;;5.10;3.73;;;;;;;27.33;52.78;101135.16;5088105;28;20214;-76
2021/06/18 18:35:58;;;;;;;5.50;3.50;;;;;;;27.32;51.97;101142.13;5087781;28;20230;-74
2021/06/18 18:38:24;;;;;;;6.77;4.30;;;;;;;27.28;54.83;101153.81;5105212;28;20174;-74
2021/06/18 18:40:49;;;;;;;7.07;4.60;;;;;;;27.15;57.84;101156.56;5104893;28;20159;-76
2021/06/18 18:43:15;;;;;;;9.50;5.03;;;;;;;26.91;59.51;101141.53;5122035;28;20175;-74
2021/06/18 18:45:41;;;;;;;10.23;5.13;;;;;;;26.67;60.67;101152.94;5121845;28;20155;-74
2021/06/18 18:48:07;;;;;;;8.47;3.93;;;;;;;26.48;60.08;101152.03;5112740;28;20697;-74
2021/06/18 18:50:33;;;;;;;8.80;4.30;;;;;;;26.32;59.32;101156.56;5108293;28;20235;-75
2021/06/18 18:52:59;;;;;;;13.40;5.00;;;;;;;26.14;60.83;101153.59;5108207;28;20170;-74
2021/06/18 18:55:25;;;;;;;9.53;4.57;;;;;;;26.00;61.86;101143.38;5091360;28;20190;-74
2021/06/18 18:57:50;;;;;;;10.07;4.87;;;;;;;25.80;62.39;101146.56;5074383;28;20178;-76
2021/06/18 19:00:16;;;;;;;9.63;4.67;;;;;;;25.59;62.79;101139.72;5107732;28;20224;-75
2021/06/18 19:02:42;;;;;;;8.57;4.47;;;;;;;25.41;62.82;101137.47;5090891;28;20249;-74
2021/06/18 19:05:09;;;;;;;7.60;4.67;;;;;;;25.32;63.09;101147.06;5090765;28;20571;-74
2021/06/18 19:07:37;;;;;;;10.37;4.70;;;;;;;25.23;63.32;101147.31;5108188;28;20649;-74
2021/06/18 19:10:05;;;;;;;5.47;3.53;;;;;;;25.11;62.43;101151.50;5091408;28;20175;-74
2021/06/18 19:12:31;;;;;;;5.87;3.90;;;;;;;25.02;62.80;101145.34;5108172;28;20182;-73
2021/06/18 19:14:57;;;;;;;8.60;4.60;;;;;;;24.93;63.36;101135.03;5074212;28;20174;-74
2021/06/18 19:21:54;;;;;;;7.77;4.50;;;;;;;24.80;64.90;101117.81;5140366;27;20529;-74
2021/06/18 19:24:20;;;;;;;9.87;4.67;;;;;;;24.77;64.63;101118.84;5106142;28;20162;-74
2021/06/18 19:26:46;;;;;;;8.63;4.23;;;;;;;24.74;64.48;101114.22;5106303;28;20196;-74
2021/06/18 19:29:12;;;;;;;9.73;4.90;;;;;;;24.67;65.14;101097.72;5105962;28;20158;-74
2021/06/18 19:31:38;;;;;;;9.20;4.90;;;;;;;24.63;65.54;101091.59;5122909;28;20177;-74
2021/06/18 19:34:04;;;;;;;6.97;5.00;;;;;;;24.60;66.54;101103.94;5088986;28;20174;-76
2021/06/18 19:36:30;;;;;;;7.83;4.53;;;;;;;24.51;67.53;101107.00;5124179;28;20155;-74
2021/06/18 19:38:56;;;;;;;7.77;4.83;;;;;;;24.39;69.29;101099.03;5123038;28;20618;-74
2021/06/18 19:41:21;;;;;;;7.87;3.50;;;;;;;24.34;68.61;101096.97;5088727;28;20194;-74
2021/06/18 19:43:47;;;;;;;11.73;3.93;;;;;;;24.29;67.71;101104.19;5124188;28;20201;-74
2021/06/18 19:46:12;;;;;;;7.03;3.90;;;;;;;24.20;66.74;101090.28;5122854;28;20159;-74
2021/06/18 19:48:38;;;;;;;9.03;4.17;;;;;;;24.09;67.38;101083.84;5122535;28;20174;-74
2021/06/18 19:51:04;;;;;;;9.77;4.20;;;;;;;24.04;67.05;101081.78;5122534;28;20253;-74
2021/06/18 19:53:29;;;;;;;8.33;4.00;;;;;;;23.97;66.94;101091.59;5105738;28;20564;-74
2021/06/18 19:55:55;;;;;;;12.10;4.80;;;;;;;23.92;66.89;101088.75;5122537;28;20178;-74
2021/06/18 19:58:21;;;;;;;8.93;4.10;;;;;;;23.88;66.83;101088.19;5105810;28;20246;-76
2021/06/18 20:00:47;;;;;;;9.47;4.33;;;;;;;23.85;67.53;101092.81;5122241;28;20205;-74
2021/06/18 20:03:13;;;;;;;10.83;5.37;;;;;;;23.80;67.54;101095.66;5105756;28;20199;-74
2021/06/18 20:05:38;;;;;;;8.67;4.73;;;;;;;23.79;67.88;101094.88;5122234;28;20220;-74
2021/06/18 20:08:04;;;;;;;10.50;5.10;;;;;;;23.75;68.16;101082.28;5105502;28;20178;-74
2021/06/18 20:10:31;;;;;;;9.50;5.13;;;;;;;23.75;68.40;101076.59;5105008;28;20178;-74
2021/06/18 20:12:57;;;;;;;13.73;5.77;;;;;;;23.71;68.54;101070.41;5122332;28;20181;-74
2021/06/18 20:15:22;;;;;;;8.53;5.30;;;;;;;23.72;68.69;101067.09;5121993;28;20159;-74
2021/06/18 20:17:48;;;;;;;9.60;5.80;;;;;;;23.70;68.49;101057.56;5122046;28;20171;-74
2021/06/18 20:20:14;;;;;;;10.20;6.20;;;;;;;23.64;68.63;101048.31;5087886;28;20279;-75
2021/06/18 20:22:39;;;;;;;8.87;6.33;;;;;;;23.65;68.96;101053.41;5087976;28;20194;-76
2021/06/18 20:25:07;;;;;;;8.17;5.93;;;;;;;23.73;68.74;101062.97;5088018;28;20190;-74
2021/06/18 20:27:33;;;;;;;11.20;5.93;;;;;;;23.77;68.50;101068.38;5121910;28;20205;-74
2021/06/18 20:29:58;;;;;;;14.80;6.70;;;;;;;23.83;68.44;101069.91;5104940;28;20158;-75
2021/06/18 20:32:24;;;;;;;12.50;6.13;;;;;;;23.88;68.63;101085.34;5113119;28;20216;-75
2021/06/18 20:34:52;;;;;;;12.27;6.87;;;;;;;23.90;68.74;101089.25;5091443;28;20201;-74
2021/06/18 20:37:17;;;;;;;11.03;6.70;;;;;;;23.96;68.74;101090.03;5091565;28;20164;-74
2021/06/18 20:39:43;;;;;;;9.80;6.70;;;;;;;24.02;69.12;101104.19;5108118;28;20224;-75
2021/06/18 20:42:08;;;;;;;16.00;7.30;;;;;;;24.04;68.93;101110.88;5109512;28;20159;-75
2021/06/18 20:44:34;;;;;;;10.00;6.73;;;;;;;24.05;69.19;101118.09;5108034;28;20178;-74
2021/06/18 20:47:01;;;;;;;10.37;7.53;;;;;;;24.09;69.16;101115.00;5091375;28;20161;-74
2021/06/18 20:49:26;;;;;;;8.70;6.93;;;;;;;24.09;69.38;101118.59;5090819;28;20183;-74
2021/06/18 20:51:52;;;;;;;10.40;7.10;;;;;;;24.10;69.35;101108.81;5107722;28;20179;-74
2021/06/18 20:54:17;;;;;;;12.17;7.40;;;;;;;24.12;69.38;101126.09;5074160;28;20174;-74
2021/06/18 20:56:49;;;;;;;8.60;6.53;;;;;;;24.08;69.18;101119.91;5090906;28;20190;-74
2021/06/18 20:59:14;;;;;;;8.53;6.40;;;;;;;24.00;69.40;101132.25;5091153;28;20698;-75
2021/06/18 21:01:40;;;;;;;11.17;6.73;;;;;;;23.95;69.59;101138.69;5107345;28;20209;-74
2021/06/18 21:04:05;;;;;;;11.60;6.47;;;;;;;24.01;69.49;101160.03;5074026;28;20221;-75
2021/06/18 21:06:31;;;;;;;9.87;6.60;;;;;;;24.02;69.56;101161.59;5107828;28;20159;-76
2021/06/18 21:08:57;;;;;;;12.47;6.33;;;;;;;24.01;69.45;101151.53;5107455;28;20175;-74
2021/06/18 21:11:25;;;;;;;8.27;4.93;;;;;;;24.03;69.07;101162.34;5107672;28;20171;-74
2021/06/18 21:13:51;;;;;;;5.67;5.00;;;;;;;24.06;68.50;101150.03;5109175;28;20210;-76
2021/06/18 21:16:16;;;;;;;8.83;6.00;;;;;;;24.04;68.94;101144.06;5107827;28;20178;-75
2021/06/18 21:18:42;;;;;;;8.53;5.30;;;;;;;24.06;68.85;101155.69;5107633;28;20177;-74
2021/06/18 21:21:07;;;;;;;7.70;5.30;;;;;;;24.07;68.72;101143.84;5107152;28;20222;-74
2021/06/18 21:23:33;;;;;;;7.60;4.80;;;;;;;24.01;68.17;101140.22;5073619;28;20179;-75
2021/06/18 21:25:59;;;;;;;9.53;5.47;;;;;;;23.98;69.73;101121.44;5107044;28;20258;-75
2021/06/18 21:28:25;;;;;;;5.77;4.67;;;;;;;23.99;70.94;101113.69;5107090;28;20618;-75
2021/06/18 21:30:50;;;;;;;7.40;4.80;;;;;;;23.93;71.82;101113.72;5108432;28;20244;-74
2021/06/18 21:33:16;;;;;;;4.80;4.10;;;;;;;23.84;71.68;101113.16;5089835;28;20194;-75
2021/06/18 21:35:42;;;;;;;6.77;5.37;;;;;;;23.79;72.18;101111.09;5090126;28;20163;-74
2021/06/18 21:38:07;;;;;;;9.00;5.87;;;;;;;23.77;72.59;101116.47;5106711;28;20218;-74
2021/06/18 21:40:33;;;;;;;8.97;4.50;;;;;;;23.72;72.58;101106.69;5089842;28;20258;-74
2021/06/18 21:42:58;;;;;;;6.27;4.30;;;;;;;23.68;71.58;101105.38;5072518;28;20187;-74
2021/06/18 21:45:24;;;;;;;8.00;4.83;;;;;;;23.69;71.77;101107.72;5089452;28;20179;-76
2021/06/18 21:47:50;;;;;;;6.80;4.40;;;;;;;23.69;71.79;101101.31;5106643;28;20179;-75
2021/06/18 21:50:16;;;;;;;7.40;4.23;;;;;;;23.67;71.48;101096.16;5106770;28;20183;-74
2021/06/18 21:52:42;;;;;;;8.27;3.80;;;;;;;23.64;70.08;101090.75;5090034;28;20166;-76
2021/06/18 21:55:09;;;;;;;6.80;4.03;;;;;;;23.60;69.74;101082.47;5090004;28;20641;-74
2021/06/18 21:57:35;;;;;;;6.13;4.07;;;;;;;23.54;69.70;101081.69;5089960;28;20273;-74
2021/06/18 22:00:01;;;;;;;6.40;3.70;;;;;;;23.48;69.60;101072.44;5072994;28;20215;-76
2021/06/18 22:02:27;;;;;;;8.23;3.20;;;;;;;23.46;68.75;101080.66;5089545;28;20240;-76
2021/06/18 22:04:52;;;;;;;5.30;3.37;;;;;;;23.48;67.94;101083.75;5072881;28;20186;-74
2021/06/18 22:07:18;;;;;;;5.77;3.30;;;;;;;23.52;67.89;101097.63;5089355;28;20197;-76
2021/06/18 22:09:44;;;;;;;6.40;3.20;;;;;;;23.47;68.12;101089.91;5107285;28;20155;-76
2021/06/18 22:12:09;;;;;;;5.47;3.37;;;;;;;23.50;68.69;101112.28;5106087;28;20203;-74
2021/06/18 22:14:35;;;;;;;6.47;3.33;;;;;;;23.49;68.73;101115.66;5089237;28;20182;-74
2021/06/18 22:17:05;;;;;;;5.40;3.70;;;;;;;23.50;68.91;101123.59;5106151;28;20180;-75
2021/06/18 22:19:31;;;;;;;7.23;4.20;;;;;;;23.52;68.92;101106.91;5089673;28;20194;-74
2021/06/18 22:21:56;;;;;;;7.87;4.37;;;;;;;23.57;68.89;101108.97;5089102;28;20187;-74
2021/06/18 22:24:22;;;;;;;7.00;3.30;;;;;;;23.52;69.00;101106.91;5089108;28;20554;-75
2021/06/18 22:26:47;;;;;;;7.60;3.20;;;;;;;23.52;69.11;101104.06;5106531;28;20161;-76
2021/06/18 22:29:13;;;;;;;5.30;3.87;;;;;;;23.53;68.96;101118.97;5106050;28;20644;-75
2021/06/18 22:31:39;;;;;;;5.03;3.83;;;;;;;23.50;69.28;101112.28;5105868;28;20185;-74
2021/06/18 22:34:04;;;;;;;8.23;4.33;;;;;;;23.50;69.49;101114.34;5088902;28;20227;-75
2021/06/18 22:36:29;;;;;;;5.67;4.50;;;;;;;23.49;69.84;101113.56;5105876;28;20163;-74
2021/06/18 22:38:55;;;;;;;5.60;4.00;;;;;;;23.47;69.99;101109.72;5106294;28;20181;-74
2021/06/18 22:42:01;;;;;;;6.13;4.30;;;;;;;23.38;70.10;101101.47;5140672;27;20513;-74
2021/06/18 22:44:27;;;;;;;6.73;4.23;;;;;;;23.40;69.90;101125.13;5106252;28;20181;-74
2021/06/18 22:47:17;;;;;;;9.07;4.17;;;;;;;23.30;70.25;101114.53;5140405;27;20533;-74
2021/06/18 22:49:43;;;;;;;5.07;3.73;;;;;;;23.25;70.40;101126.59;5123210;28;20175;-74
2021/06/18 22:52:09;;;;;;;9.93;4.50;;;;;;;23.18;70.27;101119.38;5105978;28;20188;-75
2021/06/18 22:56:30;;;;;;;6.57;4.03;;;;;;;23.25;69.60;101118.13;5140265;27;20885;-76
2021/06/18 22:58:56;;;;;;;6.80;4.10;;;;;;;23.30;69.27;101132.28;5106052;28;20239;-73
2021/06/18 23:01:21;;;;;;;6.17;4.50;;;;;;;23.29;69.34;101133.56;5124335;28;20169;-74
2021/06/18 23:03:47;;;;;;;9.13;4.50;;;;;;;23.30;69.48;101129.47;5122889;28;20181;-74
2021/06/18 23:06:13;;;;;;;8.03;4.27;;;;;;;23.29;69.45;101129.97;5123046;28;20157;-74
2021/06/18 23:08:39;;;;;;;7.67;4.83;;;;;;;23.33;69.70;101139.75;5122817;28;20548;-75
2021/06/18 23:11:34;;;;;;;6.77;5.27;;;;;;;23.36;69.47;101144.41;5140392;27;20615;-76
2021/06/18 23:13:59;;;;;;;5.50;5.00;;;;;;;23.34;69.67;101135.63;5124212;28;20163;-76
2021/06/18 23:16:25;;;;;;;6.37;5.33;;;;;;;23.34;69.69;101135.63;5122900;28;20162;-75
2021/06/18 23:18:50;;;;;;;9.73;5.87;;;;;;;23.34;69.61;101140.53;5123025;28;20174;-75
2021/06/18 23:21:16;;;;;;;6.77;5.40;;;;;;;23.30;70.04;101146.44;5122993;28;20228;-75
2021/06/18 23:23:41;;;;;;;7.83;6.00;;;;;;;23.27;69.98;101144.59;5124161;28;20169;-76
2021/06/18 23:27:27;;;;;;;6.93;6.07;;;;;;;23.19;70.29;101142.78;5140572;27;20535;-76
2021/06/18 23:29:53;;;;;;;9.47;6.47;;;;;;;23.20;70.30;101147.16;5123118;28;20167;-74
2021/06/18 23:32:21;;;;;;;8.57;6.00;;;;;;;;;;5123182;28;20161;-75
2021/06/18 23:34:47;;;;;;;11.60;6.20;;;;;;;23.12;70.32;101138.34;5123208;28;20190;-73
2021/06/18 23:37:13;;;;;;;10.40;7.03;;;;;;;23.14;70.12;101129.34;5106597;28;20181;-74
2021/06/18 23:39:38;;;;;;;7.60;6.63;;;;;;;23.09;70.25;101130.84;5106407;28;20200;-76
2021/06/18 23:42:04;;;;;;;11.17;6.53;;;;;;;23.10;70.23;101131.66;5123016;28;20158;-75
2021/06/18 23:44:29;;;;;;;10.67;6.60;;;;;;;23.05;70.29;101126.72;5105757;28;20197;-74
2021/06/18 23:46:55;;;;;;;9.07;7.00;;;;;;;23.09;70.27;101141.41;5105817;28;20193;-74
2021/06/18 23:49:20;;;;;;;8.20;7.33;;;;;;;23.05;70.27;101129.56;5088873;28;20185;-74
2021/06/18 23:51:46;;;;;;;9.20;7.50;;;;;;;23.13;70.17;101133.47;5122629;28;20177;-75
2021/06/18 23:54:11;;;;;;;8.83;7.00;;;;;;;23.15;70.15;101126.03;5105812;28;20181;-76
2021/06/18 23:56:37;;;;;;;10.30;7.27;;;;;;;23.16;70.23;101121.91;5088655;28;20169;-74
2021/06/18 23:59:02;;;;;;;8.17;7.20;;;;;;;23.15;70.01;101125.25;5122411;28;20172;-76
